Welcome to Des Moines Iowa Weather. I am an independent private personal weather station on the Northwest Side of Des Moines, Iowa. Just East of Windsor Heights and just West of Glendale . This site is also mobile friendly.

There are no active watches, warnings or advisories


Visit our other weather sites:

Historical Data

Weather Station Setup



Weather Underground History page Text

Daily Summary for January 30, 2018 Units:  Metric    English   Both
« Previous Day
Next Day »
Daily Weekly Monthly Yearly Custom
  High: Low: Average:
Temperature: 5.3 °C -10.4 °C -2.2 °C
Dew Point: -4.4 °C -12.8 °C -8.6 °C
Humidity: 87 % 47 % 65 %
Wind Speed: 16.1 km/h 0 km/h 4.3 km/h
Wind Gust: 22.5 km/h - -
Wind:- - SSE
Pressure: 1034.4 hPa 1006 hPa -
Precipitation: 0 mm    
Historical Graphs
 
 
Tabular Data for January 30, 2018
Time Temperature Dew Point Pressure Wind Wind Speed Wind Gust Humidity Rainfall Rate (Hourly)
00:00 -9.1 °C -11.7 °C 1034.4 hPa Calm     82 % 0 mm
00:16 -9.2 °C -11.7 °C 1034.4 hPa Calm     82 % 0 mm
00:31 -9.3 °C -11.7 °C 1034.4 hPa Calm     82 % 0 mm
00:46 -9.4 °C -12.2 °C 1034.4 hPa Calm     82 % 0 mm
01:01 -9.7 °C -12.2 °C 1034.1 hPa Calm     82 % 0 mm
01:16 -9.9 °C -12.2 °C 1034.1 hPa Calm     82 % 0 mm
01:31 -10.1 °C -12.8 °C 1034.1 hPa Calm     82 % 0 mm
01:46 -10.2 °C -12.8 °C 1034.1 hPa Calm     83 % 0 mm
02:01 -10.3 °C -12.8 °C 1034.1 hPa Calm     84 % 0 mm
02:16 -10.4 °C -12.8 °C 1034.1 hPa Calm     84 % 0 mm
02:31 -10.4 °C -12.2 °C 1033.4 hPa Calm     85 % 0 mm
02:46 -10.4 °C -12.2 °C 1033.4 hPa Calm     86 % 0 mm
03:01 -10.2 °C -12.2 °C 1033.4 hPa Calm     86 % 0 mm
03:19 -9.9 °C -11.7 °C 1033.1 hPa NNE 1.6 km/h 4.8 km/h 87 % 0 mm
03:31 -9.7 °C -11.7 °C 1033.1 hPa Calm   3.2 km/h 87 % 0 mm
03:46 -9.6 °C -11.7 °C 1032.7 hPa Calm     86 % 0 mm
04:01 -9.6 °C -11.7 °C 1032.7 hPa NNE 1.6 km/h 1.6 km/h 85 % 0 mm
04:16 -9.6 °C -11.7 °C 1032.7 hPa Calm   1.6 km/h 85 % 0 mm
04:31 -9.6 °C -11.7 °C 1032.4 hPa Calm   4.8 km/h 85 % 0 mm
04:46 -9.4 °C -11.7 °C 1032.7 hPa Calm   4.8 km/h 85 % 0 mm
05:01 -9.4 °C -11.7 °C 1032.4 hPa Calm   3.2 km/h 85 % 0 mm
05:16 -9.2 °C -11.1 °C 1031.7 hPa ESE 3.2 km/h 6.4 km/h 85 % 0 mm
05:31 -9 °C -11.1 °C 1031.4 hPa Calm   4.8 km/h 85 % 0 mm
05:46 -8.8 °C -11.1 °C 1031.4 hPa ESE 3.2 km/h 4.8 km/h 84 % 0 mm
06:01 -8.5 °C -10.6 °C 1031 hPa Calm   6.4 km/h 84 % 0 mm
06:16 -8.3 °C -10.6 °C 1030.7 hPa ESE 1.6 km/h 4.8 km/h 84 % 0 mm
06:31 -8 °C -10.6 °C 1030.4 hPa SE 1.6 km/h 6.4 km/h 83 % 0 mm
06:46 -7.7 °C -10 °C 1030 hPa SE 3.2 km/h 6.4 km/h 82 % 0 mm
07:01 -7.7 °C -10.6 °C 1030 hPa SE 4.8 km/h 6.4 km/h 81 % 0 mm
07:16 -7.7 °C -10.6 °C 1030 hPa SE 1.6 km/h 6.4 km/h 81 % 0 mm
07:31 -7.6 °C -10.6 °C 1029.7 hPa Calm   8 km/h 81 % 0 mm
07:46 -7.5 °C -10 °C 1030 hPa Calm   11.3 km/h 82 % 0 mm
08:01 -7.3 °C -10 °C 1030 hPa SSE 8 km/h 8 km/h 82 % 0 mm
08:17 -7.1 °C -9.4 °C 1029.7 hPa SSE 3.2 km/h 12.9 km/h 82 % 0 mm
08:32 -6.8 °C -9.4 °C 1029.7 hPa SSE 4.8 km/h 11.3 km/h 81 % 0 mm
08:47 -6.6 °C -9.4 °C 1029 hPa SSE 3.2 km/h 11.3 km/h 81 % 0 mm
09:02 -6.3 °C -8.9 °C 1028.7 hPa SSE 8 km/h 14.5 km/h 81 % 0 mm
09:17 -5.8 °C -8.9 °C 1028 hPa SSE 1.6 km/h 11.3 km/h 80 % 0 mm
09:32 -5.2 °C -8.3 °C 1027.7 hPa Calm   12.9 km/h 78 % 0 mm
09:47 -4.6 °C -7.8 °C 1027.3 hPa SE 4.8 km/h 11.3 km/h 77 % 0 mm
10:02 -3.9 °C -7.8 °C 1027.3 hPa SSE 8 km/h 12.9 km/h 74 % 0 mm
10:17 -2.8 °C -7.8 °C 1027 hPa SSW 3.2 km/h 17.7 km/h 70 % 0 mm
10:32 -2.2 °C -7.8 °C 1027 hPa SSE 8 km/h 12.9 km/h 67 % 0 mm
10:47 -1.9 °C -7.8 °C 1026.6 hPa SSE 11.3 km/h 14.5 km/h 64 % 0 mm
11:02 -1.9 °C -8.3 °C 1026 hPa SSE 12.9 km/h 16.1 km/h 63 % 0 mm
11:17 -1.2 °C -7.8 °C 1024.9 hPa SW 6.4 km/h 22.5 km/h 61 % 0 mm
11:32 -0.6 °C -7.8 °C 1024.6 hPa South 9.7 km/h 19.3 km/h 58 % 0 mm
11:47 -0.2 °C -7.8 °C 1024.3 hPa SSE 4.8 km/h 20.9 km/h 57 % 0 mm
12:02 -0.3 °C -8.3 °C 1023.2 hPa SSE 3.2 km/h 20.9 km/h 56 % 0 mm
12:17 0.1 °C -7.8 °C 1022.2 hPa SE 12.9 km/h 14.5 km/h 56 % 0 mm
12:33 0.4 °C -7.8 °C 1021.9 hPa SSE 9.7 km/h 14.5 km/h 55 % 0 mm
12:48 1.3 °C -7.2 °C 1021.2 hPa SSE 6.4 km/h 12.9 km/h 53 % 0 mm
13:03 1.9 °C -7.8 °C 1020.2 hPa SSE 9.7 km/h 17.7 km/h 50 % 0 mm
13:18 2.3 °C -7.8 °C 1019.9 hPa SSW 16.1 km/h 17.7 km/h 48 % 0 mm
13:33 1.8 °C -7.8 °C 1019.2 hPa South 4.8 km/h 17.7 km/h 50 % 0 mm
13:48 2.2 °C -7.8 °C 1018.5 hPa SSE 9.7 km/h 22.5 km/h 49 % 0 mm
14:03 2.3 °C -7.8 °C 1017.8 hPa SSE 1.6 km/h 16.1 km/h 49 % 0 mm
14:18 2.6 °C -7.2 °C 1017.2 hPa South 3.2 km/h 19.3 km/h 49 % 0 mm
14:37 2.9 °C -6.7 °C 1016.8 hPa SSW 9.7 km/h 19.3 km/h 49 % 0 mm
14:49 3.3 °C -6.7 °C 1016.5 hPa South 6.4 km/h 17.7 km/h 48 % 0 mm
15:08 3.4 °C -6.7 °C 1015.8 hPa SSE 9.7 km/h 16.1 km/h 48 % 0 mm
15:19 3.5 °C -6.7 °C 1015.1 hPa SSE 11.3 km/h 17.7 km/h 48 % 0 mm
15:34 3.7 °C -6.7 °C 1015.1 hPa South 1.6 km/h 20.9 km/h 48 % 0 mm
15:49 3.7 °C -6.7 °C 1014.8 hPa SW 6.4 km/h 14.5 km/h 48 % 0 mm
16:04 3.7 °C -6.7 °C 1014.4 hPa WSW 12.9 km/h 16.1 km/h 47 % 0 mm
16:19 3.6 °C -6.7 °C 1014.1 hPa South 4.8 km/h 16.1 km/h 47 % 0 mm
16:34 3.4 °C -7.2 °C 1014.1 hPa SSW 4.8 km/h 20.9 km/h 47 % 0 mm
16:49 3.3 °C -7.2 °C 1014.1 hPa SSW 4.8 km/h 12.9 km/h 47 % 0 mm
17:04 3.1 °C -7.2 °C 1013.4 hPa South 12.9 km/h 14.5 km/h 47 % 0 mm
17:19 2.8 °C -7.2 °C 1012.8 hPa SSW 9.7 km/h 14.5 km/h 48 % 0 mm
17:34 2.7 °C -7.2 °C 1012.8 hPa South 3.2 km/h 12.9 km/h 49 % 0 mm
17:49 2.6 °C -7.2 °C 1012.4 hPa South 11.3 km/h 19.3 km/h 49 % 0 mm
18:04 2.6 °C -7.2 °C 1012.1 hPa South 11.3 km/h 12.9 km/h 49 % 0 mm
18:19 2.6 °C -7.2 °C 1012.1 hPa SSW 6.4 km/h 9.7 km/h 49 % 0 mm
18:34 2.6 °C -7.2 °C 1011.7 hPa SSW 6.4 km/h 11.3 km/h 49 % 0 mm
18:49 2.7 °C -7.2 °C 1011.4 hPa South 3.2 km/h 14.5 km/h 49 % 0 mm
19:04 2.9 °C -7.2 °C 1011.4 hPa South 3.2 km/h 17.7 km/h 49 % 0 mm
19:19 3.1 °C -6.7 °C 1010.7 hPa ESE 6.4 km/h 22.5 km/h 49 % 0 mm
19:34 3.2 °C -6.7 °C 1010.7 hPa SSW 4.8 km/h 8 km/h 49 % 0 mm
19:49 3.4 °C -6.7 °C 1010.4 hPa SW 8 km/h 16.1 km/h 49 % 0 mm
20:04 3.6 °C -6.1 °C 1010.4 hPa South 1.6 km/h 14.5 km/h 49 % 0 mm
20:19 3.6 °C -6.1 °C 1010 hPa SSW 1.6 km/h 12.9 km/h 50 % 0 mm
20:34 3.4 °C -6.1 °C 1009.7 hPa South 9.7 km/h 9.7 km/h 50 % 0 mm
20:49 3.3 °C -6.1 °C 1009.4 hPa SSE 9.7 km/h 16.1 km/h 51 % 0 mm
21:04 3.3 °C -6.1 °C 1009 hPa South 3.2 km/h 11.3 km/h 51 % 0 mm
21:19 3.4 °C -6.1 °C 1009 hPa Calm   12.9 km/h 51 % 0 mm
21:34 3.5 °C -5.6 °C 1008.7 hPa WSW 9.7 km/h 12.9 km/h 52 % 0 mm
21:49 3.6 °C -5.6 °C 1008 hPa SSW 1.6 km/h 11.3 km/h 52 % 0 mm
22:04 3.8 °C -5.6 °C 1008 hPa South 1.6 km/h 11.3 km/h 52 % 0 mm
22:19 3.9 °C -5 °C 1007.7 hPa SSW 4.8 km/h 11.3 km/h 52 % 0 mm
22:34 4 °C -5 °C 1007.3 hPa North 3.2 km/h 11.3 km/h 52 % 0 mm
22:49 4.1 °C -5 °C 1007.3 hPa South 3.2 km/h 12.9 km/h 52 % 0 mm
23:05 4.3 °C -5 °C 1007 hPa SSW 1.6 km/h 9.7 km/h 52 % 0 mm
23:20 4.7 °C -4.4 °C 1006.7 hPa SSW 4.8 km/h 11.3 km/h 52 % 0 mm
23:35 5 °C -4.4 °C 1006.3 hPa SSW 9.7 km/h 16.1 km/h 51 % 0 mm
23:50 5.3 °C -4.4 °C 1006 hPa Calm   6.4 km/h 51 % 0 mm
Des Moines Weather and Climate
Compliments of Weather Underground - 3 mb

Script developed by  Jim McMurry - jmcmurry@mwt.net Adapted for the template by  Wim van der Kuil - Leuven-Template.eu

You find our weather info also at:

Weather Underground

Equipment we use:

Weather-station
Davis VP2 Plus

Weather-program
Davis Weatherlink.Com

Weather-server
iMac (Retina 4K, 21.5-inch, Late 2015)

Provider
Hostmonster.com

Davis VP2 Plus

Davis Weatherlink.Com

iMac (Retina 4K, 21.5-inch, Late 2015)

Hostmonster.com